Time;durP1;ratioP1;P1;durP2;ratioP2;P2;SDS_P1;SDS_P2;PMS_P1;PMS_P2;Temp;Humidity;BMP_temperature;BMP_pressure;BME280_temperature;BME280_humidity;BME280_pressure;Samples;Min_cycle;Max_cycle;Signal;HPM_P1;HPM_P2
2023/05/04 00:01:21;;;;;;;20.60;12.10;;;;;;;6.36;100.00;101319.53;5054909;28;20107;-76
2023/05/04 00:03:54;;;;;;;22.77;11.50;;;;;;;6.34;100.00;101322.00;5054878;28;20021;-76
2023/05/04 00:06:21;;;;;;;22.85;12.20;;;;;;;6.26;100.00;101306.34;5054498;28;20053;-75
2023/05/04 00:08:46;;;;;;;28.45;13.20;;;;;;;6.27;100.00;101318.50;5054145;28;20062;-76
2023/05/04 00:11:13;;;;;;;23.17;12.85;;;;;;;6.24;100.00;101311.66;5053226;28;20474;-74
2023/05/04 00:13:39;;;;;;;25.13;11.00;;;;;;;6.23;100.00;101310.06;5054732;28;20236;-74
2023/05/04 00:16:04;;;;;;;30.52;12.10;;;;;;;6.21;100.00;101306.88;5053891;28;20044;-75
2023/05/04 00:18:31;;;;;;;22.42;11.20;;;;;;;6.19;100.00;101303.66;5054223;28;20366;-75
2023/05/04 00:20:57;;;;;;;36.00;11.77;;;;;;;6.16;100.00;101301.69;5054113;28;20043;-75
2023/05/04 00:23:22;;;;;;;27.55;11.23;;;;;;;6.12;100.00;101298.16;5053576;28;20447;-76
2023/05/04 00:25:49;;;;;;;22.27;11.23;;;;;;;6.09;100.00;101302.66;5053724;28;20124;-74
2023/05/04 00:28:15;;;;;;;20.10;10.73;;;;;;;6.07;100.00;101296.63;5054061;28;20424;-75
2023/05/04 00:30:42;;;;;;;21.13;11.07;;;;;;;6.03;100.00;101304.41;5053831;28;20115;-74
2023/05/04 00:33:10;;;;;;;25.48;11.57;;;;;;;5.99;100.00;101302.91;5053046;28;20033;-76
2023/05/04 00:35:36;;;;;;;22.40;11.13;;;;;;;5.95;100.00;101297.28;5054904;28;20056;-75
2023/05/04 00:38:04;;;;;;;21.73;11.20;;;;;;;5.90;100.00;101294.94;5054464;28;20108;-74
2023/05/04 00:40:29;;;;;;;21.33;11.68;;;;;;;5.87;100.00;101297.88;5036609;28;20037;-76
2023/05/04 00:42:55;;;;;;;20.95;11.07;;;;;;;5.83;100.00;101289.44;5051636;28;20078;-76
2023/05/04 00:45:21;;;;;;;23.08;12.40;;;;;;;5.80;100.00;101293.13;5052557;28;20497;-75
2023/05/04 00:47:47;;;;;;;25.85;12.52;;;;;;;5.78;100.00;101287.09;5051995;28;20021;-75
2023/05/04 00:50:13;;;;;;;25.90;11.63;;;;;;;5.76;100.00;101287.53;5051625;28;20021;-75
2023/05/04 00:52:40;;;;;;;21.17;11.23;;;;;;;5.75;100.00;101293.63;5051108;28;20029;-76
2023/05/04 00:55:06;;;;;;;28.85;12.30;;;;;;;5.72;100.00;101292.47;5033688;28;20021;-75
2023/05/04 00:57:32;;;;;;;21.08;11.50;;;;;;;5.70;100.00;101291.31;5051525;28;20119;-76
2023/05/04 00:59:57;;;;;;;20.80;11.70;;;;;;;5.69;100.00;101295.41;5034147;28;20167;-76
2023/05/04 01:02:24;;;;;;;25.23;12.45;;;;;;;5.67;100.00;101297.84;5050325;28;20044;-76
2023/05/04 01:04:50;;;;;;;23.95;12.30;;;;;;;5.61;100.00;101300.38;5053222;28;20032;-74
2023/05/04 01:07:25;;;;;;;23.90;12.18;;;;;;;5.63;100.00;101300.75;5051467;28;20028;-75
2023/05/04 01:10:22;;;;;;;27.50;13.80;;;;;;;5.57;100.00;101307.34;5050806;28;20025;-77
2023/05/04 01:13:05;;;;;;;29.40;11.85;;;;;;;5.56;100.00;101306.56;5051547;28;20494;-77
2023/05/04 01:15:31;;;;;;;25.00;10.48;;;;;;;5.51;100.00;101306.25;5052311;28;20146;-75
2023/05/04 01:18:06;;;;;;;23.70;12.05;;;;;;;5.49;100.00;101303.06;5033887;28;20041;-75
2023/05/04 01:20:33;;;;;;;23.42;12.82;;;;;;;5.44;100.00;101306.41;5051165;28;20059;-76
2023/05/04 01:22:59;;;;;;;25.70;12.20;;;;;;;5.41;100.00;101308.06;5053327;28;20029;-75
2023/05/04 01:25:50;;;;;;;25.98;11.30;;;;;;;5.39;100.00;101313.38;5035029;28;20055;-75
2023/05/04 01:28:20;;;;;;;33.92;12.10;;;;;;;5.37;100.00;101313.00;5022650;28;20044;-76
2023/05/04 01:30:49;;;;;;;27.48;12.27;;;;;;;5.31;100.00;101312.69;5051776;28;20528;-76
2023/05/04 01:33:15;;;;;;;35.33;12.50;;;;;;;5.29;100.00;101308.69;5051795;28;20021;-76
2023/05/04 01:35:49;;;;;;;24.88;12.75;;;;;;;5.29;100.00;101314.38;5035009;28;20087;-76
2023/05/04 01:38:15;;;;;;;31.30;13.13;;;;;;;5.24;100.00;101309.19;5052195;28;20025;-75
2023/05/04 01:40:42;;;;;;;21.75;11.80;;;;;;;5.16;100.00;101294.34;5053051;28;20463;-76
2023/05/04 01:43:07;;;;;;;23.65;12.60;;;;;;;5.21;100.00;101313.66;5052271;28;20029;-76
2023/05/04 01:45:41;;;;;;;24.25;12.00;;;;;;;5.18;100.00;101311.72;5051812;28;20025;-75
2023/05/04 01:48:06;;;;;;;22.65;12.02;;;;;;;5.14;100.00;101313.81;5052771;28;20021;-74
2023/05/04 01:50:32;;;;;;;29.25;14.20;;;;;;;5.12;100.00;101304.13;5052744;28;20075;-77
2023/05/04 01:53:00;;;;;;;23.25;13.38;;;;;;;5.10;100.00;101313.06;5051545;28;20508;-77
2023/05/04 01:55:26;;;;;;;26.75;13.88;;;;;;;5.07;100.00;101307.44;5051803;28;20021;-75
2023/05/04 01:57:51;;;;;;;20.38;13.40;;;;;;;5.05;100.00;101313.56;5052384;28;20048;-76
2023/05/04 02:00:17;;;;;;;25.50;13.40;;;;;;;5.03;100.00;101313.19;5051536;28;20378;-75
2023/05/04 02:02:51;;;;;;;27.77;13.50;;;;;;;5.02;100.00;101307.94;5051747;28;20154;-76
2023/05/04 02:05:17;;;;;;;25.90;13.48;;;;;;;4.98;100.00;101310.03;5052752;28;20057;-74
2023/05/04 02:07:45;;;;;;;25.80;13.95;;;;;;;5.00;100.00;101314.06;5051364;28;20085;-75
2023/05/04 02:10:11;;;;;;;26.52;12.55;;;;;;;4.99;100.00;101311.63;5052643;28;20107;-75
2023/05/04 02:12:38;;;;;;;25.30;12.80;;;;;;;4.94;100.00;101313.75;5051638;28;20037;-76
2023/05/04 02:15:03;;;;;;;25.83;12.55;;;;;;;4.96;100.00;101309.69;5056664;28;20025;-74
2023/05/04 02:17:30;;;;;;;20.25;13.02;;;;;;;4.93;100.00;101308.50;5055212;28;20079;-76
2023/05/04 02:19:57;;;;;;;25.10;13.95;;;;;;;4.92;100.00;101306.88;5056604;28;20106;-75
2023/05/04 02:22:23;;;;;;;28.55;13.70;;;;;;;4.87;100.00;101305.34;5055184;28;20025;-74
2023/05/04 02:24:48;;;;;;;26.13;13.13;;;;;;;4.87;100.00;101311.00;5056447;28;20037;-75
2023/05/04 02:27:15;;;;;;;30.00;13.85;;;;;;;4.89;100.00;101299.25;5056754;28;20370;-75
2023/05/04 02:29:41;;;;;;;22.55;13.73;;;;;;;4.88;100.00;101306.94;5056441;28;20051;-76
2023/05/04 02:32:09;;;;;;;23.52;13.35;;;;;;;4.87;100.00;101307.38;5055379;28;20033;-75
2023/05/04 02:34:36;;;;;;;20.65;12.30;;;;;;;4.86;100.00;101308.59;5057054;28;20024;-75
2023/05/04 02:37:03;;;;;;;24.42;13.40;;;;;;;4.86;100.00;101312.22;5055677;28;20036;-76
2023/05/04 02:39:28;;;;;;;28.92;12.93;;;;;;;4.85;100.00;101307.81;5056848;28;20056;-75
2023/05/04 02:41:54;;;;;;;20.38;11.20;;;;;;;4.84;100.00;101300.56;5057255;28;20043;-76
2023/05/04 02:44:22;;;;;;;29.88;13.73;;;;;;;4.82;100.00;101296.53;5056712;28;20021;-76
2023/05/04 02:46:48;;;;;;;29.60;13.07;;;;;;;4.81;100.00;101294.91;5056101;28;20033;-76
2023/05/04 02:49:15;;;;;;;31.77;13.95;;;;;;;4.81;100.00;101297.75;5056385;28;20102;-74
2023/05/04 02:51:41;;;;;;;30.42;12.95;;;;;;;4.80;100.00;101304.66;5054123;28;20386;-75
2023/05/04 02:54:07;;;;;;;31.42;13.50;;;;;;;4.78;100.00;101305.09;5056036;28;20021;-76
2023/05/04 02:56:33;;;;;;;26.83;13.63;;;;;;;4.76;100.00;101310.38;5055565;28;20183;-76
2023/05/04 02:59:00;;;;;;;36.67;13.52;;;;;;;4.75;100.00;101310.81;5055013;28;20044;-75
2023/05/04 03:01:27;;;;;;;30.05;11.93;;;;;;;4.72;100.00;101309.63;5056220;28;20052;-74
2023/05/04 03:03:54;;;;;;;25.80;12.60;;;;;;;4.70;100.00;101306.44;5055650;28;20021;-75
2023/05/04 03:06:19;;;;;;;23.02;12.00;;;;;;;4.68;100.00;101308.09;5055332;28;20347;-75
2023/05/04 03:08:45;;;;;;;23.75;11.93;;;;;;;4.66;100.00;101314.16;5055593;28;20039;-75
2023/05/04 03:11:12;;;;;;;26.25;12.38;;;;;;;4.63;100.00;101306.53;5055768;28;20024;-74
2023/05/04 03:13:38;;;;;;;25.15;12.52;;;;;;;4.62;100.00;101302.09;5055600;28;20460;-75
2023/05/04 03:16:04;;;;;;;27.20;12.40;;;;;;;4.62;100.00;101306.94;5055147;28;20041;-75
2023/05/04 03:18:30;;;;;;;36.92;13.43;;;;;;;4.63;100.00;101308.56;5054605;28;20413;-75
2023/05/04 03:20:56;;;;;;;21.15;12.07;;;;;;;4.62;100.00;101306.94;5052593;28;20036;-75
2023/05/04 03:23:24;;;;;;;29.65;13.65;;;;;;;4.65;100.00;101309.75;5037982;28;20041;-75
2023/05/04 03:25:50;;;;;;;35.15;12.20;;;;;;;4.64;100.00;101304.50;5053530;28;20371;-77
2023/05/04 03:28:18;;;;;;;29.58;13.68;;;;;;;4.66;100.00;101314.16;5055492;28;20067;-77
2023/05/04 03:30:43;;;;;;;25.63;13.35;;;;;;;4.66;100.00;101314.16;5054243;28;20076;-76
2023/05/04 03:33:10;;;;;;;30.02;13.13;;;;;;;4.67;100.00;101315.78;5055160;28;20485;-76
2023/05/04 03:35:36;;;;;;;24.95;12.43;;;;;;;4.71;100.00;101307.25;5055236;28;20028;-76
2023/05/04 03:38:06;;;;;;;23.45;12.90;;;;;;;4.71;100.00;101316.50;5054713;28;20033;-76
2023/05/04 03:40:32;;;;;;;21.17;12.50;;;;;;;4.74;100.00;101323.38;5055466;28;20021;-75
2023/05/04 03:42:57;;;;;;;33.33;14.25;;;;;;;4.75;100.00;101322.94;5052986;28;20050;-75
2023/05/04 03:45:27;;;;;;;30.40;13.45;;;;;;;4.78;100.00;101324.91;5055471;28;20024;-76
2023/05/04 03:48:07;;;;;;;23.73;13.05;;;;;;;4.81;100.00;101324.03;5055070;28;20071;-76
2023/05/04 03:50:34;;;;;;;23.27;14.07;;;;;;;4.84;100.00;101317.53;5053723;28;20386;-74
2023/05/04 03:52:59;;;;;;;25.50;12.50;;;;;;;4.88;100.00;101320.31;5055146;28;20032;-74
2023/05/04 03:55:25;;;;;;;23.88;13.93;;;;;;;4.94;100.00;101325.06;5054757;28;20040;-75
2023/05/04 03:57:51;;;;;;;24.92;13.30;;;;;;;5.02;100.00;101316.44;5053923;28;20080;-75
2023/05/04 04:00:18;;;;;;;30.00;12.85;;;;;;;5.06;100.00;101315.13;5054777;28;20043;-76
2023/05/04 04:02:44;;;;;;;29.92;13.20;;;;;;;5.10;100.00;101318.75;5053779;28;20032;-75
2023/05/04 04:05:10;;;;;;;23.92;13.57;;;;;;;5.16;100.00;101322.66;5053812;28;20394;-75
2023/05/04 04:07:38;;;;;;;22.50;13.23;;;;;;;5.24;100.00;101329.03;5052236;28;20033;-75
2023/05/04 04:10:04;;;;;;;26.40;15.07;;;;;;;5.29;100.00;101320.03;5054479;28;20024;-75
2023/05/04 04:12:31;;;;;;;36.08;16.05;;;;;;;5.32;100.00;101324.81;5054819;28;20032;-75
2023/05/04 04:14:57;;;;;;;39.35;16.60;;;;;;;5.41;100.00;101327.91;5052217;28;20389;-74
2023/05/04 04:17:25;;;;;;;30.02;16.35;;;;;;;5.47;100.00;101328.19;5056034;28;20040;-74
2023/05/04 04:19:50;;;;;;;47.17;15.32;;;;;;;5.54;100.00;101328.88;5053440;28;20029;-76
2023/05/04 04:22:18;;;;;;;34.15;15.15;;;;;;;5.62;100.00;101333.19;5054211;28;20045;-74
2023/05/04 04:24:43;;;;;;;27.73;14.23;;;;;;;5.69;100.00;101337.94;5053586;28;20060;-75
2023/05/04 04:27:10;;;;;;;40.42;14.65;;;;;;;5.78;100.00;101341.00;5054658;28;20474;-79
2023/05/04 04:29:35;;;;;;;46.95;14.60;;;;;;;5.87;100.00;101329.06;5049170;28;20044;-78
2023/05/04 04:32:04;;;;;;;46.10;15.70;;;;;;;5.95;100.00;101328.47;5053985;28;20033;-76
2023/05/04 04:34:43;;;;;;;41.00;15.02;;;;;;;6.03;100.00;101326.31;5054246;28;20025;-76
2023/05/04 04:37:08;;;;;;;31.27;13.63;;;;;;;6.11;100.00;101319.25;5035290;28;20390;-78
2023/05/04 04:39:34;;;;;;;27.50;13.18;;;;;;;6.22;100.00;101325.50;5054651;28;20024;-77
2023/05/04 04:42:08;;;;;;;40.35;16.23;;;;;;;6.34;100.00;101329.75;5054217;28;20489;-78
2023/05/04 04:44:33;;;;;;;33.60;14.98;;;;;;;6.43;100.00;101332.78;5054092;28;20029;-75
2023/05/04 04:46:59;;;;;;;27.40;13.55;;;;;;;6.53;100.00;101337.44;5054041;28;20040;-77
2023/05/04 04:49:26;;;;;;;31.20;13.32;;;;;;;6.64;100.00;101340.81;5051532;28;20037;-78
2023/05/04 04:51:51;;;;;;;31.20;13.75;;;;;;;6.72;100.00;101330.09;5035655;28;20036;-77
2023/05/04 04:54:18;;;;;;;27.08;13.40;;;;;;;6.73;100.00;101326.81;5051087;28;20098;-81
2023/05/04 04:56:44;;;;;;;22.25;12.70;;;;;;;6.90;100.00;101339.00;5053692;28;20041;-81
2023/05/04 04:59:12;;;;;;;31.83;13.52;;;;;;;7.02;100.00;101339.09;5053977;28;20055;-81
2023/05/04 05:01:41;;;;;;;26.63;13.00;;;;;;;7.12;100.00;101334.41;5054483;28;20036;-83
2023/05/04 05:04:07;;;;;;;23.05;12.35;;;;;;;7.21;100.00;101331.72;5048871;28;20036;-77
2023/05/04 05:06:33;;;;;;;18.23;10.77;;;;;;;7.31;100.00;101341.22;5054055;28;20059;-78
2023/05/04 05:09:00;;;;;;;21.33;11.43;;;;;;;7.38;100.00;101327.63;5036146;28;20029;-77
2023/05/04 05:11:25;;;;;;;21.17;11.35;;;;;;;7.49;100.00;101336.69;5053269;28;20028;-76
2023/05/04 05:13:51;;;;;;;17.83;10.85;;;;;;;7.60;100.00;101333.56;5052894;28;20033;-76
2023/05/04 05:16:17;;;;;;;15.20;10.05;;;;;;;7.72;100.00;101334.88;5052340;28;20090;-79
2023/05/04 05:18:43;;;;;;;15.35;9.43;;;;;;;7.80;100.00;101337.06;5051894;28;20048;-78
2023/05/04 05:21:10;;;;;;;15.73;10.07;;;;;;;7.87;100.00;101330.34;5052807;28;20037;-80
2023/05/04 05:23:36;;;;;;;15.10;9.95;;;;;;;8.01;100.00;101341.38;5053386;28;20032;-76
2023/05/04 05:26:02;;;;;;;21.00;9.93;;;;;;;8.14;100.00;101344.25;5052710;28;20384;-79
2023/05/04 05:28:29;;;;;;;20.58;10.15;;;;;;;8.23;100.00;101338.72;5052912;28;20455;-80
2023/05/04 05:30:54;;;;;;;15.40;8.80;;;;;;;8.35;100.00;101341.63;5053490;28;20020;-78
2023/05/04 05:33:28;;;;;;;19.17;10.32;;;;;;;8.46;100.00;101337.66;5052593;28;20044;-79
2023/05/04 05:35:53;;;;;;;22.30;11.32;;;;;;;8.54;100.00;101342.66;5053590;28;20044;-79
2023/05/04 05:38:20;;;;;;;21.35;11.18;;;;;;;8.64;100.00;101335.84;5053343;28;20461;-79
2023/05/04 05:40:47;;;;;;;18.75;9.77;;;;;;;8.71;100.00;101331.97;5052901;28;20397;-78
2023/05/04 05:43:13;;;;;;;22.05;10.63;;;;;;;8.79;100.00;101334.16;5052234;28;20025;-78
2023/05/04 05:45:41;;;;;;;18.80;8.85;;;;;;;8.87;100.00;101340.41;5051802;28;20041;-79
2023/05/04 05:48:06;;;;;;;15.80;9.23;;;;;;;9.02;100.00;101344.41;5052091;28;20017;-78
2023/05/04 05:50:37;;;;;;;18.23;9.63;;;;;;;9.12;100.00;101339.59;5052394;28;20028;-78
2023/05/04 05:53:03;;;;;;;17.00;9.38;;;;;;;9.26;100.00;101344.81;5050582;28;20116;-80
2023/05/04 05:55:32;;;;;;;15.57;9.60;;;;;;;9.40;99.97;101346.41;5034362;28;20423;-80
2023/05/04 05:57:57;;;;;;;21.10;9.60;;;;;;;9.50;99.11;101348.88;5050063;28;20128;-78
2023/05/04 06:00:24;;;;;;;17.73;9.00;;;;;;;9.61;97.86;101354.22;5053469;28;20052;-78
2023/05/04 06:02:51;;;;;;;16.73;9.23;;;;;;;9.69;95.82;101350.66;5053255;28;20509;-80
2023/05/04 06:05:16;;;;;;;18.80;8.45;;;;;;;9.79;94.85;101347.94;5039461;28;20049;-80
2023/05/04 06:07:44;;;;;;;16.80;8.23;;;;;;;9.92;92.27;101360.91;5055024;28;20021;-82
2023/05/04 06:10:11;;;;;;;12.63;7.90;;;;;;;9.98;90.68;101349.69;5053398;28;20028;-81
2023/05/04 06:12:37;;;;;;;18.98;8.60;;;;;;;10.12;89.70;101352.03;5051825;28;20024;-79
2023/05/04 06:15:05;;;;;;;13.38;7.35;;;;;;;10.25;88.50;101360.50;5052898;28;20532;-81
2023/05/04 06:17:32;;;;;;;13.65;7.38;;;;;;;10.37;87.74;101357.59;5051985;28;20040;-78
2023/05/04 06:19:57;;;;;;;13.77;7.95;;;;;;;10.49;86.73;101361.63;5051551;28;20029;-78
2023/05/04 06:22:23;;;;;;;16.40;7.75;;;;;;;10.58;85.68;101361.69;5051511;28;20162;-79
2023/05/04 06:24:48;;;;;;;11.68;6.97;;;;;;;10.73;84.49;101362.72;5052932;28;20023;-81
2023/05/04 06:27:14;;;;;;;12.93;5.00;;;;;;;11.24;83.50;101370.94;5051939;28;20029;-84
2023/05/04 06:29:40;;;;;;;12.52;5.45;;;;;;;13.18;80.68;101364.19;5051610;28;20485;-83
2023/05/04 06:32:09;;;;;;;9.13;6.03;;;;;;;15.98;68.58;101363.13;5051806;28;20017;-86
2023/05/04 06:34:36;;;;;;;11.25;6.05;;;;;;;18.94;56.37;101370.41;5053911;28;20600;-81
2023/05/04 06:37:02;;;;;;;10.68;5.30;;;;;;;21.69;44.30;101378.06;5052148;28;20028;-83
2023/05/04 06:39:30;;;;;;;18.88;6.80;;;;;;;23.92;38.24;101375.47;5054511;28;20020;-84
2023/05/04 06:41:55;;;;;;;15.05;6.30;;;;;;;25.98;34.91;101370.47;5058535;28;20033;-84
2023/05/04 06:44:22;;;;;;;12.13;7.10;;;;;;;27.79;31.51;101369.41;5059357;28;20031;-86
2023/05/04 06:46:50;;;;;;;16.73;7.38;;;;;;;29.47;29.67;101352.53;5059882;28;20052;-80
2023/05/04 06:49:18;;;;;;;9.80;5.70;;;;;;;31.04;26.69;101349.69;5068411;28;20016;-82
2023/05/04 06:51:45;;;;;;;11.85;5.93;;;;;;;32.42;23.86;101343.66;5066011;28;20013;-84
2023/05/04 06:54:12;;;;;;;9.32;4.82;;;;;;;33.62;22.26;101335.50;5070361;28;20041;-84
2023/05/04 06:56:38;;;;;;;6.78;4.72;;;;;;;34.55;21.17;101326.31;5067542;28;20722;-84
2023/05/04 06:59:19;;;;;;;10.77;5.10;;;;;;;35.45;20.00;101327.78;5056607;28;20021;-86
2023/05/04 07:01:48;;;;;;;6.45;4.50;;;;;;;36.19;18.71;101325.69;5057540;28;20459;-84
2023/05/04 07:04:15;;;;;;;8.25;4.65;;;;;;;36.68;18.36;101316.69;5057499;28;20539;-83
2023/05/04 07:06:44;;;;;;;7.07;4.30;;;;;;;37.14;17.57;101316.38;5057061;28;20064;-81
2023/05/04 07:09:09;;;;;;;9.80;5.00;;;;;;;37.60;17.52;101312.22;5055549;28;20107;-81
2023/05/04 07:11:35;;;;;;;7.13;4.80;;;;;;;38.07;16.62;101303.53;5054903;28;20105;-81
2023/05/04 07:14:06;;;;;;;18.15;5.60;;;;;;;38.49;15.89;101296.00;5054510;28;20496;-81
2023/05/04 07:16:32;;;;;;;12.18;5.78;;;;;;;38.77;15.36;101296.63;5054228;28;20534;-80
2023/05/04 07:19:07;;;;;;;10.50;4.93;;;;;;;38.90;15.08;101295.03;5054710;28;20071;-80
2023/05/04 07:21:38;;;;;;;7.15;4.55;;;;;;;39.02;15.13;101289.59;5054290;28;20024;-81
2023/05/04 07:24:06;;;;;;;7.32;4.18;;;;;;;39.26;14.52;101298.97;5054364;28;20040;-81
2023/05/04 07:26:31;;;;;;;6.68;3.97;;;;;;;39.64;15.12;101294.03;5053002;28;20029;-80
2023/05/04 07:28:58;;;;;;;11.90;5.22;;;;;;;39.97;14.39;101287.28;5054502;28;20117;-82
2023/05/04 07:31:25;;;;;;;6.70;4.35;;;;;;;40.19;14.24;101286.00;5055134;28;20091;-80
2023/05/04 07:33:50;;;;;;;16.23;6.40;;;;;;;40.29;14.40;101284.91;5055403;28;20111;-82
2023/05/04 07:36:17;;;;;;;25.67;7.13;;;;;;;40.37;13.96;101282.28;5055490;28;20104;-81
2023/05/04 07:38:43;;;;;;;8.48;5.15;;;;;;;40.32;13.59;101269.34;5054911;28;20044;-81
2023/05/04 07:41:11;;;;;;;17.75;6.05;;;;;;;40.22;13.12;101265.91;5055221;28;20363;-80
2023/05/04 07:43:36;;;;;;;9.90;4.72;;;;;;;40.21;13.48;101270.34;5053751;28;20128;-79
2023/05/04 07:46:03;;;;;;;5.43;3.67;;;;;;;40.14;13.17;101269.31;5055162;28;20419;-81
2023/05/04 07:48:28;;;;;;;5.25;3.78;;;;;;;40.02;13.44;101262.81;5054606;28;20130;-80
2023/05/04 07:50:53;;;;;;;38.75;8.77;;;;;;;39.89;13.29;101260.72;5053692;28;20029;-81
2023/05/04 07:53:21;;;;;;;14.57;4.90;;;;;;;39.74;13.54;101262.28;5056941;28;20052;-81
2023/05/04 07:55:47;;;;;;;13.50;4.45;;;;;;;39.50;13.09;101261.22;5060842;28;20025;-82
2023/05/04 07:58:15;;;;;;;5.35;3.95;;;;;;;39.06;13.28;101253.16;5056077;28;20079;-80
2023/05/04 08:00:49;;;;;;;6.45;3.85;;;;;;;38.75;13.70;101253.94;5055346;28;20036;-79
2023/05/04 08:03:15;;;;;;;7.38;4.05;;;;;;;38.60;13.84;101248.69;5054603;28;20035;-80
2023/05/04 08:05:42;;;;;;;4.22;3.70;;;;;;;38.18;13.59;101259.25;5054528;28;20060;-81
2023/05/04 08:08:08;;;;;;;8.40;3.80;;;;;;;37.67;13.93;101248.41;5054561;28;20079;-81
2023/05/04 08:10:39;;;;;;;6.90;3.85;;;;;;;37.21;14.17;101249.69;5053168;28;20471;-80
2023/05/04 08:13:05;;;;;;;5.82;3.53;;;;;;;36.96;14.11;101251.97;5054505;28;20032;-80
2023/05/04 08:15:32;;;;;;;3.95;3.38;;;;;;;36.84;14.61;101246.84;5053414;28;20037;-80
2023/05/04 08:17:59;;;;;;;5.57;3.15;;;;;;;36.72;13.95;101252.13;5048377;28;20068;-81
2023/05/04 08:20:26;;;;;;;4.75;3.58;;;;;;;36.44;13.89;101250.50;5054468;28;20071;-82
2023/05/04 08:23:11;;;;;;;5.57;3.97;;;;;;;35.86;14.71;101241.81;5054374;28;20449;-81
2023/05/04 08:25:43;;;;;;;5.03;3.05;;;;;;;35.64;14.82;101247.22;5052403;28;20031;-81
2023/05/04 08:28:08;;;;;;;3.72;3.30;;;;;;;35.31;15.15;101250.34;5051605;28;20106;-82
2023/05/04 08:30:34;;;;;;;6.10;3.10;;;;;;;34.75;15.09;101236.41;5053748;28;20453;-81
2023/05/04 08:32:59;;;;;;;6.35;2.95;;;;;;;34.50;15.33;101242.13;5053487;28;20374;-83
2023/05/04 08:35:31;;;;;;;9.65;3.80;;;;;;;34.18;15.76;101237.00;5053495;28;20033;-83
2023/05/04 08:38:03;;;;;;;13.50;5.20;;;;;;;33.86;16.14;101250.41;5056789;28;20025;-81
2023/05/04 08:40:29;;;;;;;26.25;5.55;;;;;;;33.41;16.34;101240.59;5055363;28;20055;-83
2023/05/04 08:42:55;;;;;;;4.25;2.90;;;;;;;33.01;16.07;101241.44;5055249;28;20541;-82
2023/05/04 08:45:22;;;;;;;4.53;3.03;;;;;;;32.33;16.95;101237.91;5058282;28;20025;-82
2023/05/04 08:47:51;;;;;;;4.68;3.20;;;;;;;31.93;16.40;101241.53;5055867;28;20061;-81
2023/05/04 08:50:18;;;;;;;5.80;3.40;;;;;;;31.39;17.10;101244.75;5058572;28;20029;-82
2023/05/04 08:52:47;;;;;;;4.68;3.15;;;;;;;30.86;17.35;101236.78;5053951;28;20083;-82
2023/05/04 08:55:13;;;;;;;6.18;3.65;;;;;;;30.52;18.58;101239.84;5053009;28;20025;-82
2023/05/04 08:57:42;;;;;;;4.45;3.67;;;;;;;30.10;18.61;101216.47;5054015;28;20402;-81
2023/05/04 09:00:25;;;;;;;13.82;5.10;;;;;;;29.47;18.46;101228.03;5053915;28;20028;-82
2023/05/04 09:02:51;;;;;;;6.03;3.80;;;;;;;29.08;19.14;101232.75;5054154;28;20032;-82
2023/05/04 09:05:17;;;;;;;3.70;2.80;;;;;;;28.73;20.17;101225.94;5035958;28;20309;-81
2023/05/04 09:07:44;;;;;;;6.25;3.90;;;;;;;28.43;19.79;101235.72;5052256;28;20037;-81
2023/05/04 09:10:10;;;;;;;10.82;3.20;;;;;;;27.95;19.97;101235.78;5053436;28;20035;-82
2023/05/04 09:12:37;;;;;;;5.40;3.05;;;;;;;27.47;20.51;101237.88;5052107;28;20037;-82
2023/05/04 09:15:17;;;;;;;5.03;3.22;;;;;;;26.98;20.83;101234.56;5053724;28;20025;-82
2023/05/04 09:18:08;;;;;;;7.25;3.53;;;;;;;26.62;21.00;101237.66;5053625;28;20103;-82
2023/05/04 09:20:46;;;;;;;20.67;6.38;;;;;;;26.08;21.74;101238.88;5051942;28;20031;-82
2023/05/04 09:23:13;;;;;;;9.23;4.20;;;;;;;25.65;22.12;101236.72;5051555;28;20090;-82
2023/05/04 09:25:54;;;;;;;11.95;4.05;;;;;;;25.13;22.40;101235.00;5035366;28;20086;-82
2023/05/04 09:28:43;;;;;;;5.88;4.32;;;;;;;24.77;23.66;101229.03;5052329;28;20481;-81
2023/05/04 09:31:11;;;;;;;7.13;3.70;;;;;;;24.53;24.24;101230.19;5053237;28;20074;-80
2023/05/04 09:33:40;;;;;;;8.68;4.38;;;;;;;24.45;25.10;101232.22;5053193;28;20021;-81
2023/05/04 09:36:13;;;;;;;4.78;3.70;;;;;;;24.42;24.80;101239.22;5053278;28;20029;-82
2023/05/04 09:38:47;;;;;;;6.97;3.53;;;;;;;24.17;24.33;101227.03;5053768;28;20025;-81
2023/05/04 09:41:13;;;;;;;7.50;3.90;;;;;;;23.95;25.27;101231.25;5052232;28;20061;-82
2023/05/04 09:43:40;;;;;;;7.30;4.15;;;;;;;23.69;24.59;101229.19;5052582;28;20114;-81
2023/05/04 09:46:07;;;;;;;6.20;4.07;;;;;;;23.43;26.26;101228.38;5053557;28;20025;-81
2023/05/04 09:48:35;;;;;;;9.73;5.40;;;;;;;23.22;25.38;101234.88;5054530;28;20104;-82
2023/05/04 09:51:02;;;;;;;7.85;3.67;;;;;;;22.93;25.51;101225.09;5054556;28;20036;-82
2023/05/04 09:53:30;;;;;;;5.38;3.40;;;;;;;22.91;26.81;101221.94;5051534;28;20054;-81
2023/05/04 09:56:09;;;;;;;4.88;3.30;;;;;;;22.89;26.47;101218.81;5053475;28;20032;-81
2023/05/04 09:58:37;;;;;;;5.88;3.10;;;;;;;22.87;26.80;101224.41;5051411;28;20130;-82
2023/05/04 10:01:03;;;;;;;13.38;4.00;;;;;;;22.78;25.92;101224.81;5051714;28;20033;-82
2023/05/04 10:03:29;;;;;;;11.75;4.07;;;;;;;22.54;25.95;101222.06;5051726;28;20029;-81
2023/05/04 10:05:57;;;;;;;3.53;2.40;;;;;;;22.37;26.04;101221.56;5053208;28;20075;-81
2023/05/04 10:08:32;;;;;;;3.92;2.70;;;;;;;22.30;26.36;101219.28;5053120;28;20029;-82
2023/05/04 10:10:58;;;;;;;7.47;3.40;;;;;;;22.20;26.46;101221.03;5052858;28;20033;-81
2023/05/04 10:13:30;;;;;;;4.90;2.90;;;;;;;21.98;27.94;101217.06;5052980;28;20052;-82
2023/05/04 10:16:01;;;;;;;7.03;3.58;;;;;;;21.80;26.73;101217.88;5052981;28;20458;-82
2023/05/04 10:18:45;;;;;;;5.05;3.47;;;;;;;21.51;27.07;101219.59;5053279;28;20025;-81
2023/05/04 10:21:26;;;;;;;6.00;3.05;;;;;;;21.24;27.46;101217.75;5053350;28;20072;-83
2023/05/04 10:24:04;;;;;;;7.45;3.55;;;;;;;21.02;27.69;101218.03;5052867;28;20354;-81
2023/05/04 10:26:58;;;;;;;10.93;3.22;;;;;;;20.83;29.39;101205.53;5052784;28;20033;-81
2023/05/04 10:29:27;;;;;;;5.90;2.92;;;;;;;20.80;30.55;101199.47;5052677;28;20222;-80
2023/05/04 10:31:53;;;;;;;4.40;3.05;;;;;;;20.75;29.02;101208.25;5053000;28;20025;-79
2023/05/04 10:34:28;;;;;;;5.35;2.63;;;;;;;20.72;30.85;101200.63;5036449;28;20478;-80
2023/05/04 10:36:55;;;;;;;5.43;3.20;;;;;;;20.69;30.83;101205.38;5055240;28;20434;-80
2023/05/04 10:39:31;;;;;;;3.72;3.03;;;;;;;20.51;28.88;101208.16;5054833;28;20029;-80
2023/05/04 10:42:07;;;;;;;5.75;3.00;;;;;;;20.35;30.53;101204.06;5037988;28;20033;-82
2023/05/04 10:44:52;;;;;;;5.80;3.05;;;;;;;20.30;31.38;101196.22;5055202;28;20025;-83
2023/05/04 10:47:32;;;;;;;11.38;3.63;;;;;;;20.17;30.06;101204.75;5056224;28;20389;-83
2023/05/04 10:50:09;;;;;;;3.67;3.17;;;;;;;20.08;30.46;101193.47;5054919;28;20033;-84
2023/05/04 10:52:48;;;;;;;5.28;2.92;;;;;;;20.03;30.85;101189.28;5056332;28;20045;-83
2023/05/04 10:55:16;;;;;;;3.78;2.47;;;;;;;19.94;29.76;101196.22;5054763;28;20111;-82
2023/05/04 10:57:50;;;;;;;6.78;2.55;;;;;;;19.74;28.95;101196.56;5054833;28;20435;-83
2023/05/04 11:00:34;;;;;;;3.17;2.45;;;;;;;19.47;28.83;101180.88;5054692;28;20478;-82
2023/05/04 11:03:04;;;;;;;3.63;2.50;;;;;;;19.26;29.48;101173.09;5054880;28;20037;-80
2023/05/04 11:05:40;;;;;;;2.47;2.10;;;;;;;19.08;29.83;101166.50;5056995;28;20614;-81
2023/05/04 11:08:19;;;;;;;3.53;3.17;;;;;;;19.02;30.96;101167.84;5056858;28;20029;-81
2023/05/04 11:10:46;;;;;;;5.22;3.10;;;;;;;18.91;31.40;101162.91;5056448;28;20025;-81
2023/05/04 11:13:14;;;;;;;6.18;2.85;;;;;;;18.89;31.93;101165.53;5038448;28;20021;-79
2023/05/04 11:15:47;;;;;;;4.68;3.28;;;;;;;18.82;32.05;101168.19;5054202;28;20028;-77
2023/05/04 11:18:13;;;;;;;5.68;3.00;;;;;;;18.68;31.99;101170.81;5055642;28;20017;-78
2023/05/04 11:20:41;;;;;;;7.03;3.03;;;;;;;18.54;31.78;101157.44;5055599;28;20060;-78
2023/05/04 11:23:09;;;;;;;4.85;2.92;;;;;;;18.44;32.04;101150.34;5037606;28;20025;-77